首页
METAR-TAF:

METAR-TAF

机场 :

Chandler Regional Airport

钱德勒, 奧克拉荷馬州, 美国

纬度: 35-43-26N, 经度: 096-49-13W, 海拔: 300米

当前天气观测

该预报发布于44分钟前的03:00 UTC
风速7节,风向东南
温度 27°C
湿度 66%
气压 1011 hPa
能見度: 16.1公里
天空无云

METAR: KCQB 170300Z AUTO 14007KT 10SM CLR 27/20 A2984 RMK AO2 T02680202

时间: 22:44 (03:44 UTC)


TAF: 丢失

超过4000个机场的气象观测和天气预报(METAR&TAF报告)。

可查询的气象台以黄色和红色小点在地图上表示。

将鼠标移到小点上方,可查看气象台名称。

然后点击查看天气观测和预报。

如需切换地图:点击带黑十字的绿色按钮放大地图;点击带横线的绿色按钮缩小地图;或者点击绿色箭头查看邻近地区的地图。


METAR-TAF: